sensor_id;sensor_type;location;lat;lon;timestamp;P1;durP1;ratioP1;P2;durP2;ratioP2
24145;SDS011;12308;50.948;4.706;2023-06-10T00:00:00;17.25;;;12.40;;
24145;SDS011;12308;50.948;4.706;2023-06-10T00:02:26;16.42;;;12.10;;
24145;SDS011;12308;50.948;4.706;2023-06-10T00:04:52;16.27;;;12.40;;
24145;SDS011;12308;50.948;4.706;2023-06-10T00:07:18;13.40;;;12.07;;
24145;SDS011;12308;50.948;4.706;2023-06-10T00:09:44;15.35;;;12.18;;
24145;SDS011;12308;50.948;4.706;2023-06-10T00:12:10;17.52;;;12.27;;
24145;SDS011;12308;50.948;4.706;2023-06-10T00:14:36;15.02;;;12.27;;
24145;SDS011;12308;50.948;4.706;2023-06-10T00:17:03;14.68;;;12.57;;
24145;SDS011;12308;50.948;4.706;2023-06-10T00:19:29;14.98;;;13.07;;
24145;SDS011;12308;50.948;4.706;2023-06-10T00:21:58;13.80;;;12.35;;
24145;SDS011;12308;50.948;4.706;2023-06-10T00:24:24;19.42;;;12.35;;
24145;SDS011;12308;50.948;4.706;2023-06-10T00:26:49;16.85;;;13.02;;
24145;SDS011;12308;50.948;4.706;2023-06-10T00:29:15;14.93;;;12.90;;
24145;SDS011;12308;50.948;4.706;2023-06-10T00:31:41;16.38;;;12.13;;
24145;SDS011;12308;50.948;4.706;2023-06-10T00:34:08;18.48;;;13.20;;
24145;SDS011;12308;50.948;4.706;2023-06-10T00:36:34;19.23;;;13.13;;
24145;SDS011;12308;50.948;4.706;2023-06-10T00:39:01;17.77;;;12.95;;
24145;SDS011;12308;50.948;4.706;2023-06-10T00:41:27;20.45;;;12.63;;
24145;SDS011;12308;50.948;4.706;2023-06-10T00:43:53;16.23;;;13.27;;
24145;SDS011;12308;50.948;4.706;2023-06-10T00:46:19;18.23;;;13.45;;
24145;SDS011;12308;50.948;4.706;2023-06-10T00:48:45;16.60;;;12.73;;
24145;SDS011;12308;50.948;4.706;2023-06-10T00:51:12;15.18;;;13.57;;
24145;SDS011;12308;50.948;4.706;2023-06-10T00:53:39;17.17;;;13.48;;
24145;SDS011;12308;50.948;4.706;2023-06-10T00:56:06;18.10;;;13.32;;
24145;SDS011;12308;50.948;4.706;2023-06-10T00:58:32;17.27;;;13.48;;
24145;SDS011;12308;50.948;4.706;2023-06-10T01:00:59;18.33;;;13.20;;
24145;SDS011;12308;50.948;4.706;2023-06-10T01:03:25;15.32;;;13.73;;
24145;SDS011;12308;50.948;4.706;2023-06-10T01:05:53;17.77;;;13.80;;
24145;SDS011;12308;50.948;4.706;2023-06-10T01:08:40;17.15;;;14.18;;
24145;SDS011;12308;50.948;4.706;2023-06-10T01:11:14;17.70;;;13.52;;
24145;SDS011;12308;50.948;4.706;2023-06-10T01:13:44;18.40;;;13.38;;
24145;SDS011;12308;50.948;4.706;2023-06-10T01:16:11;17.33;;;14.77;;
24145;SDS011;12308;50.948;4.706;2023-06-10T01:18:37;17.70;;;14.70;;
24145;SDS011;12308;50.948;4.706;2023-06-10T01:21:05;18.40;;;14.50;;
24145;SDS011;12308;50.948;4.706;2023-06-10T01:23:32;23.20;;;14.30;;
24145;SDS011;12308;50.948;4.706;2023-06-10T01:26:06;20.63;;;14.30;;
24145;SDS011;12308;50.948;4.706;2023-06-10T01:28:48;18.73;;;14.40;;
24145;SDS011;12308;50.948;4.706;2023-06-10T01:31:32;18.77;;;14.63;;
24145;SDS011;12308;50.948;4.706;2023-06-10T01:34:03;17.33;;;15.00;;
24145;SDS011;12308;50.948;4.706;2023-06-10T01:36:33;17.42;;;14.95;;
24145;SDS011;12308;50.948;4.706;2023-06-10T01:39:00;19.67;;;15.40;;
24145;SDS011;12308;50.948;4.706;2023-06-10T01:41:27;21.23;;;14.77;;
24145;SDS011;12308;50.948;4.706;2023-06-10T01:43:54;22.05;;;15.45;;
24145;SDS011;12308;50.948;4.706;2023-06-10T01:46:20;16.42;;;14.73;;
24145;SDS011;12308;50.948;4.706;2023-06-10T01:48:46;18.02;;;15.40;;
24145;SDS011;12308;50.948;4.706;2023-06-10T01:51:12;21.08;;;15.43;;
24145;SDS011;12308;50.948;4.706;2023-06-10T01:53:38;17.05;;;15.23;;
24145;SDS011;12308;50.948;4.706;2023-06-10T01:56:03;20.67;;;15.80;;
24145;SDS011;12308;50.948;4.706;2023-06-10T01:58:29;17.85;;;15.45;;
24145;SDS011;12308;50.948;4.706;2023-06-10T02:00:55;19.35;;;15.23;;
24145;SDS011;12308;50.948;4.706;2023-06-10T02:03:21;18.80;;;15.38;;
24145;SDS011;12308;50.948;4.706;2023-06-10T02:05:46;18.52;;;15.50;;
24145;SDS011;12308;50.948;4.706;2023-06-10T02:08:12;25.00;;;16.67;;
24145;SDS011;12308;50.948;4.706;2023-06-10T02:10:38;18.67;;;15.88;;
24145;SDS011;12308;50.948;4.706;2023-06-10T02:13:04;19.10;;;16.15;;
24145;SDS011;12308;50.948;4.706;2023-06-10T02:15:30;18.50;;;15.93;;
24145;SDS011;12308;50.948;4.706;2023-06-10T02:17:55;21.73;;;15.88;;
24145;SDS011;12308;50.948;4.706;2023-06-10T02:20:21;22.42;;;16.88;;
24145;SDS011;12308;50.948;4.706;2023-06-10T02:22:47;20.02;;;16.63;;
24145;SDS011;12308;50.948;4.706;2023-06-10T02:25:13;21.30;;;16.38;;
24145;SDS011;12308;50.948;4.706;2023-06-10T02:27:38;20.58;;;16.98;;
24145;SDS011;12308;50.948;4.706;2023-06-10T02:30:04;18.08;;;16.13;;
24145;SDS011;12308;50.948;4.706;2023-06-10T02:32:30;17.83;;;15.88;;
24145;SDS011;12308;50.948;4.706;2023-06-10T02:34:56;18.95;;;16.70;;
24145;SDS011;12308;50.948;4.706;2023-06-10T02:37:22;20.02;;;16.55;;
24145;SDS011;12308;50.948;4.706;2023-06-10T02:39:48;19.50;;;17.17;;
24145;SDS011;12308;50.948;4.706;2023-06-10T02:42:14;19.85;;;17.05;;
24145;SDS011;12308;50.948;4.706;2023-06-10T02:44:40;24.25;;;16.88;;
24145;SDS011;12308;50.948;4.706;2023-06-10T02:47:05;19.50;;;17.05;;
24145;SDS011;12308;50.948;4.706;2023-06-10T02:49:31;23.95;;;18.17;;
24145;SDS011;12308;50.948;4.706;2023-06-10T02:51:57;22.60;;;18.27;;
24145;SDS011;12308;50.948;4.706;2023-06-10T02:54:23;20.33;;;17.75;;
24145;SDS011;12308;50.948;4.706;2023-06-10T02:56:51;19.85;;;17.80;;
24145;SDS011;12308;50.948;4.706;2023-06-10T02:59:17;23.70;;;18.10;;
24145;SDS011;12308;50.948;4.706;2023-06-10T03:01:43;20.38;;;17.35;;
24145;SDS011;12308;50.948;4.706;2023-06-10T03:04:09;20.30;;;18.08;;
24145;SDS011;12308;50.948;4.706;2023-06-10T03:06:37;20.15;;;17.92;;
24145;SDS011;12308;50.948;4.706;2023-06-10T03:09:05;21.05;;;18.45;;
24145;SDS011;12308;50.948;4.706;2023-06-10T03:11:35;24.15;;;18.60;;
24145;SDS011;12308;50.948;4.706;2023-06-10T03:14:01;22.73;;;15.45;;
24145;SDS011;12308;50.948;4.706;2023-06-10T03:16:27;22.50;;;15.93;;
24145;SDS011;12308;50.948;4.706;2023-06-10T03:18:53;28.23;;;17.08;;
24145;SDS011;12308;50.948;4.706;2023-06-10T03:21:19;20.25;;;16.67;;
24145;SDS011;12308;50.948;4.706;2023-06-10T03:23:45;25.95;;;17.70;;
24145;SDS011;12308;50.948;4.706;2023-06-10T03:26:11;24.70;;;17.33;;
24145;SDS011;12308;50.948;4.706;2023-06-10T03:28:39;20.23;;;18.10;;
24145;SDS011;12308;50.948;4.706;2023-06-10T03:31:05;22.10;;;18.13;;
24145;SDS011;12308;50.948;4.706;2023-06-10T03:33:31;25.17;;;18.27;;
24145;SDS011;12308;50.948;4.706;2023-06-10T03:35:57;23.35;;;18.92;;
24145;SDS011;12308;50.948;4.706;2023-06-10T03:38:23;27.33;;;18.27;;
24145;SDS011;12308;50.948;4.706;2023-06-10T03:40:48;22.75;;;18.05;;
24145;SDS011;12308;50.948;4.706;2023-06-10T03:43:14;24.27;;;19.65;;
24145;SDS011;12308;50.948;4.706;2023-06-10T03:45:40;20.25;;;18.23;;
24145;SDS011;12308;50.948;4.706;2023-06-10T03:48:06;21.13;;;18.67;;
24145;SDS011;12308;50.948;4.706;2023-06-10T03:50:33;21.08;;;18.67;;
24145;SDS011;12308;50.948;4.706;2023-06-10T03:52:59;25.05;;;18.85;;
24145;SDS011;12308;50.948;4.706;2023-06-10T03:55:25;24.25;;;19.52;;
24145;SDS011;12308;50.948;4.706;2023-06-10T03:57:51;20.55;;;17.65;;
24145;SDS011;12308;50.948;4.706;2023-06-10T04:00:16;26.58;;;17.95;;
24145;SDS011;12308;50.948;4.706;2023-06-10T04:02:43;25.35;;;18.88;;
24145;SDS011;12308;50.948;4.706;2023-06-10T04:05:14;22.65;;;19.83;;
24145;SDS011;12308;50.948;4.706;2023-06-10T04:07:41;22.35;;;19.73;;
24145;SDS011;12308;50.948;4.706;2023-06-10T04:10:08;21.88;;;18.92;;
24145;SDS011;12308;50.948;4.706;2023-06-10T04:12:35;23.88;;;20.85;;
24145;SDS011;12308;50.948;4.706;2023-06-10T04:15:01;23.38;;;20.90;;
24145;SDS011;12308;50.948;4.706;2023-06-10T04:17:27;25.15;;;21.00;;
24145;SDS011;12308;50.948;4.706;2023-06-10T04:19:53;23.83;;;21.23;;
24145;SDS011;12308;50.948;4.706;2023-06-10T04:22:20;24.27;;;21.67;;
24145;SDS011;12308;50.948;4.706;2023-06-10T04:24:45;26.98;;;21.58;;
24145;SDS011;12308;50.948;4.706;2023-06-10T04:27:11;24.95;;;20.48;;
24145;SDS011;12308;50.948;4.706;2023-06-10T04:29:37;28.38;;;20.23;;
24145;SDS011;12308;50.948;4.706;2023-06-10T04:32:03;23.40;;;19.60;;
24145;SDS011;12308;50.948;4.706;2023-06-10T04:34:30;23.80;;;19.55;;
24145;SDS011;12308;50.948;4.706;2023-06-10T04:36:56;24.90;;;20.58;;
24145;SDS011;12308;50.948;4.706;2023-06-10T04:39:22;22.25;;;19.50;;
24145;SDS011;12308;50.948;4.706;2023-06-10T04:41:48;30.73;;;21.15;;
24145;SDS011;12308;50.948;4.706;2023-06-10T04:44:13;24.85;;;20.55;;
24145;SDS011;12308;50.948;4.706;2023-06-10T04:46:39;21.80;;;19.52;;
24145;SDS011;12308;50.948;4.706;2023-06-10T04:49:05;25.25;;;19.70;;
24145;SDS011;12308;50.948;4.706;2023-06-10T04:51:31;23.60;;;19.70;;
24145;SDS011;12308;50.948;4.706;2023-06-10T04:53:57;21.02;;;18.75;;
24145;SDS011;12308;50.948;4.706;2023-06-10T04:56:23;20.85;;;18.45;;
24145;SDS011;12308;50.948;4.706;2023-06-10T04:58:50;21.95;;;17.60;;
24145;SDS011;12308;50.948;4.706;2023-06-10T05:01:16;21.00;;;18.02;;
24145;SDS011;12308;50.948;4.706;2023-06-10T05:03:42;22.65;;;18.40;;
24145;SDS011;12308;50.948;4.706;2023-06-10T05:06:07;24.98;;;19.92;;
24145;SDS011;12308;50.948;4.706;2023-06-10T05:08:33;23.17;;;19.40;;
24145;SDS011;12308;50.948;4.706;2023-06-10T05:10:59;25.60;;;20.25;;
24145;SDS011;12308;50.948;4.706;2023-06-10T05:13:25;23.60;;;18.95;;
24145;SDS011;12308;50.948;4.706;2023-06-10T05:15:50;22.48;;;19.50;;
24145;SDS011;12308;50.948;4.706;2023-06-10T05:18:16;23.00;;;19.70;;
24145;SDS011;12308;50.948;4.706;2023-06-10T05:20:42;21.95;;;19.60;;
24145;SDS011;12308;50.948;4.706;2023-06-10T05:23:07;27.33;;;20.05;;
24145;SDS011;12308;50.948;4.706;2023-06-10T05:25:33;22.17;;;18.75;;
24145;SDS011;12308;50.948;4.706;2023-06-10T05:28:00;22.58;;;19.88;;
24145;SDS011;12308;50.948;4.706;2023-06-10T05:30:25;24.95;;;18.88;;
24145;SDS011;12308;50.948;4.706;2023-06-10T05:32:51;26.27;;;19.20;;
24145;SDS011;12308;50.948;4.706;2023-06-10T05:35:18;27.48;;;18.85;;
24145;SDS011;12308;50.948;4.706;2023-06-10T05:37:44;23.20;;;18.30;;
24145;SDS011;12308;50.948;4.706;2023-06-10T05:40:10;28.40;;;18.98;;
24145;SDS011;12308;50.948;4.706;2023-06-10T05:42:36;27.30;;;18.75;;
24145;SDS011;12308;50.948;4.706;2023-06-10T05:45:02;21.70;;;18.65;;
24145;SDS011;12308;50.948;4.706;2023-06-10T05:47:28;30.98;;;18.85;;
24145;SDS011;12308;50.948;4.706;2023-06-10T05:49:54;24.10;;;19.08;;
24145;SDS011;12308;50.948;4.706;2023-06-10T05:52:20;22.02;;;18.35;;
24145;SDS011;12308;50.948;4.706;2023-06-10T05:54:45;24.40;;;19.90;;
24145;SDS011;12308;50.948;4.706;2023-06-10T05:57:11;21.27;;;18.90;;
24145;SDS011;12308;50.948;4.706;2023-06-10T05:59:37;25.88;;;18.70;;
24145;SDS011;12308;50.948;4.706;2023-06-10T06:02:02;25.75;;;18.83;;
24145;SDS011;12308;50.948;4.706;2023-06-10T06:04:28;24.23;;;18.08;;
24145;SDS011;12308;50.948;4.706;2023-06-10T06:06:54;25.25;;;18.83;;
24145;SDS011;12308;50.948;4.706;2023-06-10T06:09:20;23.35;;;17.83;;
24145;SDS011;12308;50.948;4.706;2023-06-10T06:11:45;23.25;;;17.77;;
24145;SDS011;12308;50.948;4.706;2023-06-10T06:14:11;21.77;;;18.27;;
24145;SDS011;12308;50.948;4.706;2023-06-10T06:16:37;20.42;;;17.23;;
24145;SDS011;12308;50.948;4.706;2023-06-10T06:19:03;20.08;;;16.52;;
24145;SDS011;12308;50.948;4.706;2023-06-10T06:21:29;25.35;;;16.05;;
24145;SDS011;12308;50.948;4.706;2023-06-10T06:23:54;18.35;;;16.33;;
24145;SDS011;12308;50.948;4.706;2023-06-10T06:26:20;17.27;;;15.07;;
24145;SDS011;12308;50.948;4.706;2023-06-10T06:28:46;17.58;;;15.35;;
24145;SDS011;12308;50.948;4.706;2023-06-10T06:31:11;18.92;;;15.63;;
24145;SDS011;12308;50.948;4.706;2023-06-10T06:33:37;23.17;;;15.82;;
24145;SDS011;12308;50.948;4.706;2023-06-10T06:36:03;18.75;;;16.00;;
24145;SDS011;12308;50.948;4.706;2023-06-10T06:38:29;21.42;;;15.65;;
24145;SDS011;12308;50.948;4.706;2023-06-10T06:40:54;23.77;;;16.52;;
24145;SDS011;12308;50.948;4.706;2023-06-10T06:43:20;17.65;;;15.38;;
24145;SDS011;12308;50.948;4.706;2023-06-10T06:45:46;21.83;;;14.93;;
24145;SDS011;12308;50.948;4.706;2023-06-10T06:48:11;17.80;;;14.95;;
24145;SDS011;12308;50.948;4.706;2023-06-10T06:50:37;18.15;;;14.68;;
24145;SDS011;12308;50.948;4.706;2023-06-10T06:53:03;17.40;;;14.93;;
24145;SDS011;12308;50.948;4.706;2023-06-10T06:55:29;21.58;;;15.45;;
24145;SDS011;12308;50.948;4.706;2023-06-10T06:57:55;18.63;;;15.43;;
24145;SDS011;12308;50.948;4.706;2023-06-10T07:00:21;18.02;;;15.23;;
24145;SDS011;12308;50.948;4.706;2023-06-10T07:02:47;16.75;;;14.95;;
24145;SDS011;12308;50.948;4.706;2023-06-10T07:05:13;21.30;;;15.10;;
24145;SDS011;12308;50.948;4.706;2023-06-10T07:07:39;21.50;;;14.40;;
24145;SDS011;12308;50.948;4.706;2023-06-10T07:10:04;17.48;;;14.60;;
24145;SDS011;12308;50.948;4.706;2023-06-10T07:12:30;16.60;;;13.73;;
24145;SDS011;12308;50.948;4.706;2023-06-10T07:14:56;18.88;;;14.60;;
24145;SDS011;12308;50.948;4.706;2023-06-10T07:17:22;18.73;;;13.60;;
24145;SDS011;12308;50.948;4.706;2023-06-10T07:19:47;22.23;;;14.25;;
24145;SDS011;12308;50.948;4.706;2023-06-10T07:22:13;17.45;;;13.63;;
24145;SDS011;12308;50.948;4.706;2023-06-10T07:24:39;15.70;;;13.73;;
24145;SDS011;12308;50.948;4.706;2023-06-10T07:27:05;17.77;;;13.50;;
24145;SDS011;12308;50.948;4.706;2023-06-10T07:29:32;17.40;;;13.40;;
24145;SDS011;12308;50.948;4.706;2023-06-10T07:31:58;19.13;;;14.07;;
24145;SDS011;12308;50.948;4.706;2023-06-10T07:34:23;18.77;;;13.23;;
24145;SDS011;12308;50.948;4.706;2023-06-10T07:36:49;24.08;;;14.07;;
24145;SDS011;12308;50.948;4.706;2023-06-10T07:39:15;19.08;;;13.43;;
24145;SDS011;12308;50.948;4.706;2023-06-10T07:41:41;18.75;;;13.02;;
24145;SDS011;12308;50.948;4.706;2023-06-10T07:44:06;17.52;;;12.82;;
24145;SDS011;12308;50.948;4.706;2023-06-10T07:46:32;16.35;;;13.50;;
24145;SDS011;12308;50.948;4.706;2023-06-10T07:48:57;19.70;;;12.63;;
24145;SDS011;12308;50.948;4.706;2023-06-10T07:51:23;14.23;;;11.68;;
24145;SDS011;12308;50.948;4.706;2023-06-10T07:53:49;16.55;;;12.90;;
24145;SDS011;12308;50.948;4.706;2023-06-10T07:56:15;18.75;;;12.18;;
24145;SDS011;12308;50.948;4.706;2023-06-10T07:58:40;17.98;;;12.40;;
24145;SDS011;12308;50.948;4.706;2023-06-10T08:01:06;13.35;;;12.00;;
24145;SDS011;12308;50.948;4.706;2023-06-10T08:03:32;15.40;;;12.38;;
24145;SDS011;12308;50.948;4.706;2023-06-10T08:05:58;17.35;;;12.60;;
24145;SDS011;12308;50.948;4.706;2023-06-10T08:08:23;13.80;;;11.90;;
24145;SDS011;12308;50.948;4.706;2023-06-10T08:10:49;14.88;;;11.82;;
24145;SDS011;12308;50.948;4.706;2023-06-10T08:13:15;18.20;;;12.23;;
24145;SDS011;12308;50.948;4.706;2023-06-10T08:15:41;17.90;;;12.02;;
24145;SDS011;12308;50.948;4.706;2023-06-10T08:18:06;18.63;;;12.30;;
24145;SDS011;12308;50.948;4.706;2023-06-10T08:20:32;16.27;;;11.95;;
24145;SDS011;12308;50.948;4.706;2023-06-10T08:22:57;18.83;;;12.07;;
24145;SDS011;12308;50.948;4.706;2023-06-10T08:25:23;16.13;;;11.57;;
24145;SDS011;12308;50.948;4.706;2023-06-10T08:27:49;18.55;;;12.55;;
24145;SDS011;12308;50.948;4.706;2023-06-10T08:30:16;18.67;;;12.63;;
24145;SDS011;12308;50.948;4.706;2023-06-10T08:32:41;13.38;;;11.98;;
24145;SDS011;12308;50.948;4.706;2023-06-10T08:35:07;13.80;;;11.80;;
24145;SDS011;12308;50.948;4.706;2023-06-10T08:37:33;18.00;;;11.23;;
24145;SDS011;12308;50.948;4.706;2023-06-10T08:39:59;16.75;;;12.57;;
24145;SDS011;12308;50.948;4.706;2023-06-10T08:44:56;13.95;;;11.73;;
24145;SDS011;12308;50.948;4.706;2023-06-10T08:47:22;17.88;;;11.95;;
24145;SDS011;12308;50.948;4.706;2023-06-10T08:49:49;14.02;;;11.73;;
24145;SDS011;12308;50.948;4.706;2023-06-10T08:52:21;16.48;;;11.65;;
24145;SDS011;12308;50.948;4.706;2023-06-10T08:57:52;13.63;;;11.48;;
24145;SDS011;12308;50.948;4.706;2023-06-10T09:00:18;16.17;;;11.38;;
24145;SDS011;12308;50.948;4.706;2023-06-10T09:02:44;13.05;;;11.32;;
24145;SDS011;12308;50.948;4.706;2023-06-10T09:05:11;14.18;;;11.05;;
24145;SDS011;12308;50.948;4.706;2023-06-10T09:07:38;15.15;;;10.60;;
24145;SDS011;12308;50.948;4.706;2023-06-10T09:10:04;13.35;;;10.23;;
24145;SDS011;12308;50.948;4.706;2023-06-10T09:12:32;12.88;;;9.75;;
24145;SDS011;12308;50.948;4.706;2023-06-10T09:14:59;11.90;;;10.23;;
24145;SDS011;12308;50.948;4.706;2023-06-10T09:17:25;12.55;;;11.27;;
24145;SDS011;12308;50.948;4.706;2023-06-10T09:19:52;13.02;;;10.13;;
24145;SDS011;12308;50.948;4.706;2023-06-10T09:22:20;13.35;;;10.35;;
24145;SDS011;12308;50.948;4.706;2023-06-10T09:24:49;17.17;;;11.70;;
24145;SDS011;12308;50.948;4.706;2023-06-10T09:27:15;16.40;;;11.25;;
24145;SDS011;12308;50.948;4.706;2023-06-10T09:29:45;13.98;;;10.95;;
24145;SDS011;12308;50.948;4.706;2023-06-10T09:32:12;11.70;;;10.32;;
24145;SDS011;12308;50.948;4.706;2023-06-10T09:34:38;17.45;;;10.88;;
24145;SDS011;12308;50.948;4.706;2023-06-10T09:37:05;14.48;;;11.20;;
24145;SDS011;12308;50.948;4.706;2023-06-10T09:39:31;13.98;;;10.82;;
24145;SDS011;12308;50.948;4.706;2023-06-10T09:41:57;16.70;;;11.38;;
24145;SDS011;12308;50.948;4.706;2023-06-10T09:44:22;13.65;;;11.32;;
24145;SDS011;12308;50.948;4.706;2023-06-10T09:46:50;12.75;;;10.90;;
24145;SDS011;12308;50.948;4.706;2023-06-10T09:49:16;15.85;;;11.63;;
24145;SDS011;12308;50.948;4.706;2023-06-10T09:51:52;16.55;;;10.80;;
24145;SDS011;12308;50.948;4.706;2023-06-10T09:54:18;12.52;;;10.85;;
24145;SDS011;12308;50.948;4.706;2023-06-10T09:56:48;15.68;;;11.68;;
24145;SDS011;12308;50.948;4.706;2023-06-10T09:59:15;16.97;;;11.23;;
24145;SDS011;12308;50.948;4.706;2023-06-10T10:01:41;12.73;;;10.82;;
24145;SDS011;12308;50.948;4.706;2023-06-10T10:04:06;14.55;;;10.43;;
24145;SDS011;12308;50.948;4.706;2023-06-10T10:06:32;15.55;;;10.75;;
24145;SDS011;12308;50.948;4.706;2023-06-10T10:09:00;16.13;;;9.88;;
24145;SDS011;12308;50.948;4.706;2023-06-10T10:11:26;14.68;;;10.48;;
24145;SDS011;12308;50.948;4.706;2023-06-10T10:13:52;15.40;;;10.23;;
24145;SDS011;12308;50.948;4.706;2023-06-10T10:16:36;16.58;;;10.65;;
24145;SDS011;12308;50.948;4.706;2023-06-10T10:19:12;12.05;;;10.18;;
24145;SDS011;12308;50.948;4.706;2023-06-10T10:21:50;13.73;;;11.05;;
24145;SDS011;12308;50.948;4.706;2023-06-10T10:24:20;15.15;;;10.38;;
24145;SDS011;12308;50.948;4.706;2023-06-10T10:26:48;15.30;;;10.43;;
24145;SDS011;12308;50.948;4.706;2023-06-10T10:29:32;15.13;;;10.73;;
24145;SDS011;12308;50.948;4.706;2023-06-10T10:32:03;12.98;;;10.50;;
24145;SDS011;12308;50.948;4.706;2023-06-10T10:34:32;11.40;;;9.73;;
24145;SDS011;12308;50.948;4.706;2023-06-10T10:37:02;11.05;;;9.95;;
24145;SDS011;12308;50.948;4.706;2023-06-10T10:39:28;12.95;;;10.15;;
24145;SDS011;12308;50.948;4.706;2023-06-10T10:41:55;14.43;;;9.73;;
24145;SDS011;12308;50.948;4.706;2023-06-10T10:44:21;13.60;;;9.57;;
24145;SDS011;12308;50.948;4.706;2023-06-10T10:46:50;13.55;;;9.18;;
24145;SDS011;12308;50.948;4.706;2023-06-10T10:49:17;13.75;;;9.23;;
24145;SDS011;12308;50.948;4.706;2023-06-10T10:52:00;12.23;;;10.23;;
24145;SDS011;12308;50.948;4.706;2023-06-10T10:54:30;16.17;;;9.52;;
24145;SDS011;12308;50.948;4.706;2023-06-10T11:05:00;13.30;;;9.23;;
24145;SDS011;12308;50.948;4.706;2023-06-10T11:07:28;12.55;;;9.52;;
24145;SDS011;12308;50.948;4.706;2023-06-10T11:09:59;11.20;;;9.95;;
24145;SDS011;12308;50.948;4.706;2023-06-10T11:12:54;12.05;;;9.77;;
24145;SDS011;12308;50.948;4.706;2023-06-10T11:15:19;15.90;;;9.40;;
24145;SDS011;12308;50.948;4.706;2023-06-10T11:28:39;15.23;;;9.80;;
24145;SDS011;12308;50.948;4.706;2023-06-10T11:31:05;15.73;;;9.85;;
24145;SDS011;12308;50.948;4.706;2023-06-10T11:33:31;12.52;;;9.82;;
24145;SDS011;12308;50.948;4.706;2023-06-10T11:35:57;10.75;;;9.70;;
24145;SDS011;12308;50.948;4.706;2023-06-10T11:38:24;13.00;;;10.30;;
24145;SDS011;12308;50.948;4.706;2023-06-10T11:40:50;13.18;;;10.27;;
24145;SDS011;12308;50.948;4.706;2023-06-10T11:43:17;12.88;;;10.18;;
24145;SDS011;12308;50.948;4.706;2023-06-10T11:45:43;11.02;;;9.30;;
24145;SDS011;12308;50.948;4.706;2023-06-10T11:48:09;14.20;;;9.40;;
24145;SDS011;12308;50.948;4.706;2023-06-10T11:50:35;13.10;;;9.38;;
24145;SDS011;12308;50.948;4.706;2023-06-10T11:53:02;12.68;;;9.73;;
24145;SDS011;12308;50.948;4.706;2023-06-10T11:55:44;15.40;;;9.50;;
24145;SDS011;12308;50.948;4.706;2023-06-10T11:58:19;14.18;;;9.73;;
24145;SDS011;12308;50.948;4.706;2023-06-10T12:00:52;10.88;;;9.23;;
24145;SDS011;12308;50.948;4.706;2023-06-10T12:03:19;10.80;;;9.38;;
24145;SDS011;12308;50.948;4.706;2023-06-10T12:06:02;16.83;;;9.93;;
24145;SDS011;12308;50.948;4.706;2023-06-10T12:08:32;12.52;;;9.82;;
24145;SDS011;12308;50.948;4.706;2023-06-10T12:10:58;13.18;;;9.32;;
24145;SDS011;12308;50.948;4.706;2023-06-10T12:13:27;10.15;;;9.07;;
24145;SDS011;12308;50.948;4.706;2023-06-10T12:15:53;16.20;;;9.40;;
24145;SDS011;12308;50.948;4.706;2023-06-10T12:18:23;12.55;;;9.30;;
24145;SDS011;12308;50.948;4.706;2023-06-10T12:20:49;13.45;;;9.13;;
24145;SDS011;12308;50.948;4.706;2023-06-10T12:23:18;11.25;;;9.52;;
24145;SDS011;12308;50.948;4.706;2023-06-10T12:25:54;11.77;;;9.05;;
24145;SDS011;12308;50.948;4.706;2023-06-10T12:28:24;9.85;;;8.80;;
24145;SDS011;12308;50.948;4.706;2023-06-10T12:30:51;13.13;;;8.70;;
24145;SDS011;12308;50.948;4.706;2023-06-10T12:33:31;12.80;;;8.50;;
24145;SDS011;12308;50.948;4.706;2023-06-10T12:35:56;10.85;;;8.90;;
24145;SDS011;12308;50.948;4.706;2023-06-10T12:38:23;13.38;;;9.40;;
24145;SDS011;12308;50.948;4.706;2023-06-10T12:40:52;9.82;;;8.75;;
24145;SDS011;12308;50.948;4.706;2023-06-10T12:43:24;9.20;;;8.27;;
24145;SDS011;12308;50.948;4.706;2023-06-10T12:45:51;10.95;;;7.88;;
24145;SDS011;12308;50.948;4.706;2023-06-10T12:48:17;14.65;;;8.68;;
24145;SDS011;12308;50.948;4.706;2023-06-10T12:50:46;10.70;;;8.80;;
24145;SDS011;12308;50.948;4.706;2023-06-10T12:53:17;12.10;;;8.48;;
24145;SDS011;12308;50.948;4.706;2023-06-10T12:55:44;11.07;;;8.93;;
24145;SDS011;12308;50.948;4.706;2023-06-10T12:58:11;12.80;;;9.65;;
24145;SDS011;12308;50.948;4.706;2023-06-10T13:00:37;13.82;;;8.98;;
24145;SDS011;12308;50.948;4.706;2023-06-10T13:03:04;11.98;;;9.15;;
24145;SDS011;12308;50.948;4.706;2023-06-10T13:05:32;13.75;;;9.13;;
24145;SDS011;12308;50.948;4.706;2023-06-10T13:07:59;13.07;;;9.05;;
24145;SDS011;12308;50.948;4.706;2023-06-10T13:10:25;17.98;;;9.40;;
24145;SDS011;12308;50.948;4.706;2023-06-10T13:12:51;11.55;;;9.18;;
24145;SDS011;12308;50.948;4.706;2023-06-10T13:15:17;12.85;;;8.93;;
24145;SDS011;12308;50.948;4.706;2023-06-10T13:17:44;16.65;;;9.55;;
24145;SDS011;12308;50.948;4.706;2023-06-10T13:20:13;9.75;;;8.75;;
24145;SDS011;12308;50.948;4.706;2023-06-10T13:22:39;13.80;;;9.73;;
24145;SDS011;12308;50.948;4.706;2023-06-10T13:25:05;12.38;;;9.60;;
24145;SDS011;12308;50.948;4.706;2023-06-10T13:27:34;11.00;;;9.90;;
24145;SDS011;12308;50.948;4.706;2023-06-10T13:30:03;13.63;;;9.85;;
24145;SDS011;12308;50.948;4.706;2023-06-10T13:32:30;12.60;;;9.30;;
24145;SDS011;12308;50.948;4.706;2023-06-10T13:34:56;11.65;;;9.38;;
24145;SDS011;12308;50.948;4.706;2023-06-10T13:37:22;11.88;;;9.35;;
24145;SDS011;12308;50.948;4.706;2023-06-10T13:39:48;13.45;;;10.00;;
24145;SDS011;12308;50.948;4.706;2023-06-10T13:42:18;12.20;;;9.40;;
24145;SDS011;12308;50.948;4.706;2023-06-10T13:44:44;10.55;;;9.40;;
24145;SDS011;12308;50.948;4.706;2023-06-10T13:47:10;12.73;;;9.30;;
24145;SDS011;12308;50.948;4.706;2023-06-10T13:49:36;13.52;;;9.38;;
24145;SDS011;12308;50.948;4.706;2023-06-10T13:52:02;14.23;;;9.25;;
24145;SDS011;12308;50.948;4.706;2023-06-10T13:54:28;15.95;;;9.50;;
24145;SDS011;12308;50.948;4.706;2023-06-10T13:56:54;10.70;;;8.88;;
24145;SDS011;12308;50.948;4.706;2023-06-10T13:59:19;18.20;;;9.52;;
24145;SDS011;12308;50.948;4.706;2023-06-10T14:01:46;13.65;;;9.20;;
24145;SDS011;12308;50.948;4.706;2023-06-10T14:04:12;10.60;;;8.95;;
24145;SDS011;12308;50.948;4.706;2023-06-10T14:06:38;11.68;;;9.52;;
24145;SDS011;12308;50.948;4.706;2023-06-10T14:09:04;11.80;;;9.30;;
24145;SDS011;12308;50.948;4.706;2023-06-10T14:11:30;15.68;;;9.40;;
24145;SDS011;12308;50.948;4.706;2023-06-10T14:13:56;12.68;;;8.85;;
24145;SDS011;12308;50.948;4.706;2023-06-10T14:16:23;13.18;;;9.55;;
24145;SDS011;12308;50.948;4.706;2023-06-10T14:18:49;11.45;;;9.00;;
24145;SDS011;12308;50.948;4.706;2023-06-10T14:21:18;10.88;;;8.70;;
24145;SDS011;12308;50.948;4.706;2023-06-10T14:23:44;11.38;;;8.75;;
24145;SDS011;12308;50.948;4.706;2023-06-10T14:26:10;15.23;;;9.48;;
24145;SDS011;12308;50.948;4.706;2023-06-10T14:28:36;10.27;;;8.55;;
24145;SDS011;12308;50.948;4.706;2023-06-10T14:31:02;12.13;;;8.60;;
24145;SDS011;12308;50.948;4.706;2023-06-10T14:33:28;12.65;;;8.90;;
24145;SDS011;12308;50.948;4.706;2023-06-10T14:35:53;12.43;;;9.07;;
24145;SDS011;12308;50.948;4.706;2023-06-10T14:38:20;16.10;;;8.73;;
24145;SDS011;12308;50.948;4.706;2023-06-10T14:40:45;13.05;;;9.32;;
24145;SDS011;12308;50.948;4.706;2023-06-10T14:43:11;12.02;;;9.30;;
24145;SDS011;12308;50.948;4.706;2023-06-10T14:45:37;9.63;;;8.63;;
24145;SDS011;12308;50.948;4.706;2023-06-10T14:48:05;11.05;;;8.90;;